createdAt,value
2019-06-07T00:01:42.247Z,8.93
2019-06-07T00:04:11.532Z,8.85
2019-06-07T00:06:38.179Z,9.15
2019-06-07T00:09:08.103Z,8.63
2019-06-07T00:11:34.810Z,10.98
2019-06-07T00:14:02.599Z,12.35
2019-06-07T00:16:31.050Z,8.95
2019-06-07T00:18:59.131Z,6.93
2019-06-07T00:22:12.645Z,8.18
2019-06-07T00:23:54.959Z,9.45
2019-06-07T00:26:23.322Z,8.40
2019-06-07T00:28:51.431Z,8.02
2019-06-07T00:31:24.408Z,7.68
2019-06-07T00:33:47.356Z,8.02
2019-06-07T00:36:17.747Z,8.45
2019-06-07T00:38:43.288Z,10.90
2019-06-07T00:41:12.510Z,10.52
2019-06-07T00:43:39.404Z,8.52
2019-06-07T00:46:07.803Z,8.90
2019-06-07T00:48:35.861Z,8.88
2019-06-07T00:51:03.957Z,9.45
2019-06-07T00:53:32.733Z,7.35
2019-06-07T00:55:59.891Z,7.72
2019-06-07T00:58:29.549Z,9.88
2019-06-07T01:00:56.121Z,7.72
2019-06-07T01:03:25.829Z,8.77
2019-06-07T01:05:52.265Z,11.60
2019-06-07T01:08:22.750Z,13.73
2019-06-07T01:10:53.511Z,8.32
2019-06-07T01:13:18.541Z,9.68
2019-06-07T01:15:44.798Z,10.30
2019-06-07T01:18:36.186Z,15.93
2019-06-07T01:20:41.426Z,12.43
2019-06-07T01:23:52.011Z,13.10
2019-06-07T01:25:37.669Z,10.80
2019-06-07T01:28:06.136Z,10.98
2019-06-07T01:30:34.259Z,11.35
2019-06-07T01:33:02.282Z,14.70
2019-06-07T01:35:30.468Z,10.70
2019-06-07T01:37:59.216Z,14.30
2019-06-07T01:40:31.926Z,14.45
2019-06-07T01:42:54.933Z,10.70
2019-06-07T01:45:26.183Z,13.95
2019-06-07T01:47:52.273Z,11.00
2019-06-07T01:50:23.284Z,11.23
2019-06-07T01:52:48.774Z,12.15
2019-06-07T01:55:18.806Z,15.48
2019-06-07T01:57:48.566Z,14.15
2019-06-07T02:00:21.534Z,21.00
2019-06-07T02:02:47.445Z,21.17
2019-06-07T02:05:20.665Z,16.60
2019-06-07T02:07:46.056Z,19.77
2019-06-07T02:10:14.112Z,20.42
2019-06-07T02:12:43.581Z,17.02
2019-06-07T02:15:10.350Z,21.27
2019-06-07T02:17:38.703Z,17.83
2019-06-07T02:20:06.512Z,19.37
2019-06-07T02:22:34.783Z,16.37
2019-06-07T02:25:35.013Z,18.48
2019-06-07T02:27:32.799Z,18.73
2019-06-07T02:29:59.930Z,18.05
2019-06-07T02:32:31.714Z,20.05
2019-06-07T02:34:55.950Z,17.80
2019-06-07T02:37:27.000Z,18.85
2019-06-07T02:39:53.111Z,19.77
2019-06-07T02:42:26.136Z,22.85
2019-06-07T02:44:49.402Z,17.58
2019-06-07T02:47:17.845Z,16.85
2019-06-07T02:49:45.936Z,21.12
2019-06-07T02:52:15.018Z,16.33
2019-06-07T02:54:44.124Z,16.87
2019-06-07T02:57:12.295Z,15.98
2019-06-07T03:00:05.350Z,16.73
2019-06-07T03:02:08.648Z,14.68
2019-06-07T03:04:41.522Z,17.00
2019-06-07T03:07:04.961Z,16.52
2019-06-07T03:09:35.036Z,17.10
2019-06-07T03:12:00.644Z,13.43
2019-06-07T03:14:28.892Z,13.85
2019-06-07T03:17:03.094Z,14.20
2019-06-07T03:19:37.771Z,12.57
2019-06-07T03:22:03.649Z,14.90
2019-06-07T03:24:35.240Z,13.90
2019-06-07T03:29:29.711Z,13.57
2019-06-07T03:31:56.393Z,13.68
2019-06-07T03:34:24.852Z,15.73
2019-06-07T03:36:53.110Z,13.57
2019-06-07T03:39:20.925Z,13.73
2019-06-07T03:42:05.109Z,13.00
2019-06-07T03:44:16.706Z,14.43
2019-06-07T03:46:44.891Z,14.40
2019-06-07T03:49:13.075Z,11.60
2019-06-07T03:51:41.641Z,17.08
2019-06-07T03:54:09.986Z,15.63
2019-06-07T03:56:40.869Z,12.07
2019-06-07T03:59:06.273Z,12.52
2019-06-07T04:01:35.567Z,12.02
2019-06-07T04:04:02.899Z,14.07
2019-06-07T04:06:32.558Z,13.50
2019-06-07T04:08:59.686Z,12.05
2019-06-07T04:11:27.895Z,13.13
2019-06-07T04:13:56.021Z,11.05
2019-06-07T04:16:24.083Z,12.27
2019-06-07T04:18:52.271Z,10.35
2019-06-07T04:21:20.117Z,13.73
2019-06-07T04:23:48.193Z,12.60
2019-06-07T04:26:16.260Z,12.00
2019-06-07T04:31:12.433Z,10.38
2019-06-07T04:33:43.532Z,14.35
2019-06-07T04:36:09.277Z,9.60
2019-06-07T04:38:40.083Z,9.77
2019-06-07T04:41:04.964Z,11.60
2019-06-07T04:43:33.546Z,9.80
2019-06-07T04:46:00.729Z,8.95
2019-06-07T04:48:30.924Z,12.98
2019-06-07T04:50:57.086Z,11.95
2019-06-07T04:53:25.263Z,9.48
2019-06-07T04:55:53.340Z,8.60
2019-06-07T04:58:21.229Z,11.00
2019-06-07T05:00:56.840Z,9.40
2019-06-07T05:03:19.422Z,8.23
2019-06-07T05:05:47.586Z,9.38
2019-06-07T05:08:27.661Z,9.32
2019-06-07T05:10:44.274Z,9.35
2019-06-07T05:13:12.091Z,10.00
2019-06-07T05:15:42.230Z,10.95
2019-06-07T05:18:08.600Z,8.63
2019-06-07T05:20:40.142Z,8.10
2019-06-07T05:23:04.797Z,7.57
2019-06-07T05:25:34.089Z,7.68
2019-06-07T05:28:00.739Z,7.78
2019-06-07T05:33:01.105Z,8.05
2019-06-07T05:35:30.659Z,7.60
2019-06-07T05:37:58.534Z,8.25
2019-06-07T05:40:37.305Z,9.05
2019-06-07T05:43:04.208Z,7.50
2019-06-07T05:45:35.031Z,7.53
2019-06-07T05:48:02.734Z,11.98
2019-06-07T05:50:42.347Z,11.38
2019-06-07T05:52:57.415Z,10.10
2019-06-07T05:55:25.281Z,8.73
2019-06-07T05:57:53.371Z,11.55
2019-06-07T06:00:21.584Z,9.25
2019-06-07T06:03:03.607Z,9.18
2019-06-07T06:05:32.327Z,8.43
2019-06-07T06:07:50.530Z,7.75
2019-06-07T06:10:14.024Z,8.30
2019-06-07T06:12:46.115Z,8.48
2019-06-07T06:15:10.176Z,7.65
2019-06-07T06:17:41.442Z,8.07
2019-06-07T06:20:07.184Z,10.32
2019-06-07T06:22:37.107Z,7.50
2019-06-07T06:29:59.619Z,10.77
2019-06-07T06:32:42.149Z,7.70
2019-06-07T06:34:56.054Z,8.95
2019-06-07T06:37:24.540Z,7.62
2019-06-07T06:39:52.912Z,7.47
2019-06-07T06:42:21.171Z,7.18
2019-06-07T06:44:52.271Z,7.93
2019-06-07T06:47:17.349Z,7.75
2019-06-07T06:49:46.822Z,6.60
2019-06-07T06:52:13.675Z,7.32
2019-06-07T06:54:46.624Z,7.12
2019-06-07T06:57:19.677Z,7.05
2019-06-07T06:59:39.704Z,5.45
2019-06-07T07:02:06.392Z,8.07
2019-06-07T07:04:34.618Z,5.32
2019-06-07T07:07:02.750Z,8.63
2019-06-07T07:09:30.966Z,5.60
2019-06-07T07:12:10.961Z,5.70
2019-06-07T07:14:26.994Z,6.32
2019-06-07T07:16:56.685Z,5.25
2019-06-07T07:19:23.510Z,6.43
2019-06-07T07:21:53.564Z,7.18
2019-06-07T07:24:22.103Z,4.37
2019-06-07T07:26:50.354Z,4.85
2019-06-07T07:29:16.566Z,6.65
2019-06-07T07:31:45.656Z,8.13
2019-06-07T07:34:32.512Z,4.82
2019-06-07T07:36:41.235Z,6.22
2019-06-07T07:39:09.756Z,4.65
2019-06-07T07:41:37.896Z,6.35
2019-06-07T07:44:07.741Z,5.40
2019-06-07T07:46:35.504Z,5.40
2019-06-07T07:49:02.519Z,4.50
2019-06-07T07:51:30.242Z,4.97
2019-06-07T07:54:10.157Z,6.78
2019-06-07T07:56:26.508Z,4.10
2019-06-07T07:59:00.226Z,5.47
2019-06-07T08:01:22.965Z,6.22
2019-06-07T08:03:54.876Z,5.45
2019-06-07T08:06:19.208Z,6.70
2019-06-07T08:08:47.129Z,4.37
2019-06-07T08:11:15.351Z,4.87
2019-06-07T08:13:43.137Z,3.92
2019-06-07T08:16:16.223Z,5.30
2019-06-07T08:18:39.458Z,5.93
2019-06-07T08:21:23.746Z,6.32
2019-06-07T08:23:36.250Z,4.43
2019-06-07T08:26:04.144Z,5.87
2019-06-07T08:28:32.258Z,7.12
2019-06-07T08:31:06.438Z,4.75
2019-06-07T08:33:28.523Z,4.03
2019-06-07T08:36:10.555Z,4.47
2019-06-07T08:38:29.667Z,8.35
2019-06-07T08:41:00.780Z,4.97
2019-06-07T08:43:22.047Z,7.85
2019-06-07T08:45:51.259Z,4.32
2019-06-07T08:48:27.394Z,7.12
2019-06-07T08:50:46.330Z,7.00
2019-06-07T08:53:14.133Z,6.85
2019-06-07T08:55:42.608Z,4.50
2019-06-07T08:58:10.443Z,3.87
2019-06-07T09:00:47.524Z,4.55
2019-06-07T09:03:07.506Z,7.12
2019-06-07T09:05:34.480Z,8.68
2019-06-07T09:08:23.997Z,7.55
2019-06-07T09:10:30.813Z,6.53
2019-06-07T09:13:03.158Z,4.47
2019-06-07T09:15:26.892Z,7.32
2019-06-07T09:18:37.830Z,7.50
2019-06-07T09:20:36.387Z,6.45
2019-06-07T09:22:51.674Z,6.37
2019-06-07T09:25:21.610Z,11.38
2019-06-07T09:27:48.354Z,6.93
2019-06-07T09:30:18.958Z,4.15
2019-06-07T09:32:45.380Z,7.22
2019-06-07T09:35:17.594Z,3.72
2019-06-07T09:40:21.675Z,2.67
2019-06-07T09:42:38.602Z,3.70
2019-06-07T09:45:11.690Z,2.55
2019-06-07T09:47:34.946Z,5.10
2019-06-07T09:50:06.031Z,2.47
2019-06-07T09:52:30.781Z,3.72
2019-06-07T09:55:09.222Z,9.50
2019-06-07T09:57:27.949Z,6.95
2019-06-07T09:59:57.920Z,3.60
2019-06-07T10:02:24.401Z,2.15
2019-06-07T10:04:54.073Z,2.95
2019-06-07T10:07:31.120Z,3.05
2019-06-07T10:10:19.837Z,4.45
2019-06-07T10:12:19.821Z,3.22
2019-06-07T10:14:47.926Z,3.80
2019-06-07T10:17:16.028Z,3.40
2019-06-07T10:19:44.283Z,2.90
2019-06-07T10:22:12.379Z,3.70
2019-06-07T10:24:40.948Z,1.85
2019-06-07T10:27:10.056Z,2.47
2019-06-07T10:29:37.317Z,5.53
2019-06-07T10:32:06.884Z,4.05
2019-06-07T10:34:34.429Z,3.83
2019-06-07T10:37:03.818Z,2.12
2019-06-07T10:39:30.578Z,4.93
2019-06-07T10:41:58.405Z,4.68
2019-06-07T10:44:27.072Z,2.20
2019-06-07T10:46:58.931Z,7.72
2019-06-07T10:49:23.396Z,11.05
2019-06-07T10:51:51.627Z,4.15
2019-06-07T10:54:26.763Z,2.60
2019-06-07T10:56:48.232Z,1.90
2019-06-07T10:59:16.947Z,3.05
2019-06-07T11:01:45.091Z,2.20
2019-06-07T11:04:13.852Z,3.28
2019-06-07T11:06:41.633Z,3.17
2019-06-07T11:09:09.991Z,3.50
2019-06-07T11:11:37.674Z,4.78
2019-06-07T11:14:06.463Z,4.15
2019-06-07T11:16:33.341Z,2.45
2019-06-07T11:19:01.465Z,1.95
2019-06-07T11:21:29.620Z,2.25
2019-06-07T11:23:57.705Z,2.62
2019-06-07T11:26:26.595Z,2.40
2019-06-07T11:28:54.998Z,2.35
2019-06-07T11:31:23.253Z,7.15
2019-06-07T11:33:51.371Z,3.15
2019-06-07T11:36:19.576Z,3.50
2019-06-07T11:38:48.133Z,2.80
2019-06-07T11:41:16.252Z,3.62
2019-06-07T11:43:44.474Z,5.78
2019-06-07T11:46:13.145Z,3.92
2019-06-07T11:48:41.306Z,4.93
2019-06-07T11:51:10.793Z,5.75
2019-06-07T11:53:37.758Z,2.83
2019-06-07T11:56:05.835Z,3.78
2019-06-07T11:58:34.522Z,7.35
2019-06-07T12:01:02.705Z,2.37
2019-06-07T12:03:30.850Z,3.17
2019-06-07T12:05:58.995Z,3.58
2019-06-07T12:08:27.123Z,3.22
2019-06-07T12:10:55.393Z,4.45
2019-06-07T12:13:26.752Z,4.10
2019-06-07T12:15:51.702Z,7.55
2019-06-07T12:18:19.777Z,4.05
2019-06-07T12:20:47.897Z,6.12
2019-06-07T12:23:18.087Z,6.18
2019-06-07T12:25:45.784Z,4.70
2019-06-07T12:28:14.693Z,3.80
2019-06-07T12:30:42.413Z,3.00
2019-06-07T12:33:11.307Z,3.20
2019-06-07T12:35:39.265Z,5.03
2019-06-07T12:38:07.671Z,2.65
2019-06-07T12:40:35.626Z,3.05
2019-06-07T12:43:03.617Z,3.15
2019-06-07T12:45:44.194Z,4.03
2019-06-07T12:48:00.433Z,5.03
2019-06-07T12:50:42.134Z,7.47
2019-06-07T12:52:57.306Z,3.03
2019-06-07T12:55:25.502Z,6.35
2019-06-07T12:57:53.826Z,3.00
2019-06-07T13:00:22.450Z,4.68
2019-06-07T13:02:50.542Z,2.83
2019-06-07T13:05:19.947Z,4.82
2019-06-07T13:07:46.955Z,4.15
2019-06-07T13:10:15.667Z,3.25
2019-06-07T13:12:44.088Z,2.45
2019-06-07T13:15:14.960Z,3.17
2019-06-07T13:17:39.650Z,2.50
2019-06-07T13:20:07.818Z,3.33
2019-06-07T13:22:35.903Z,3.50
2019-06-07T13:25:04.077Z,5.82
2019-06-07T13:27:33.818Z,3.80
2019-06-07T13:30:00.109Z,3.45
2019-06-07T13:32:28.246Z,4.78
2019-06-07T13:34:56.464Z,3.37
2019-06-07T13:37:25.543Z,4.60
2019-06-07T13:39:52.920Z,3.22
2019-06-07T13:42:22.851Z,2.78
2019-06-07T13:44:49.682Z,3.35
2019-06-07T13:47:18.958Z,4.32
2019-06-07T13:49:46.537Z,3.83
2019-06-07T13:52:14.699Z,3.12
2019-06-07T13:54:43.285Z,3.17
2019-06-07T13:57:11.665Z,6.28
2019-06-07T13:59:39.723Z,3.97
2019-06-07T14:02:07.306Z,5.00
2019-06-07T14:04:35.501Z,4.90
2019-06-07T14:07:03.733Z,3.08
2019-06-07T14:09:31.525Z,3.50
2019-06-07T14:11:59.438Z,4.07
2019-06-07T14:14:28.995Z,3.80
2019-06-07T14:16:55.727Z,3.25
2019-06-07T14:19:24.567Z,3.35
2019-06-07T14:21:52.512Z,4.10
2019-06-07T14:24:21.047Z,3.40
2019-06-07T14:27:08.105Z,5.35
2019-06-07T14:29:36.899Z,4.07
2019-06-07T14:32:05.558Z,7.75
2019-06-07T14:34:33.733Z,4.15
2019-06-07T14:37:01.806Z,4.97
2019-06-07T14:39:31.380Z,4.10
2019-06-07T14:42:08.567Z,3.70
2019-06-07T14:44:26.300Z,3.17
2019-06-07T14:46:54.773Z,4.80
2019-06-07T14:49:24.343Z,2.42
2019-06-07T14:51:51.587Z,7.75
2019-06-07T14:54:19.534Z,7.35
2019-06-07T14:56:47.702Z,23.05
2019-06-07T14:59:15.795Z,9.15
2019-06-07T15:01:43.944Z,21.40
2019-06-07T15:04:12.171Z,7.65
2019-06-07T15:06:40.299Z,7.20
2019-06-07T15:09:08.484Z,39.72
2019-06-07T15:11:36.676Z,10.40
2019-06-07T15:14:04.527Z,15.75
2019-06-07T15:16:33.731Z,11.48
2019-06-07T15:19:00.588Z,24.77
2019-06-07T15:21:28.706Z,14.30
2019-06-07T15:23:57.082Z,13.73
2019-06-07T15:26:24.955Z,5.45
2019-06-07T15:28:53.091Z,10.40
2019-06-07T15:31:21.302Z,5.30
2019-06-07T15:33:49.150Z,3.83
2019-06-07T15:36:17.048Z,3.45
2019-06-07T15:38:45.123Z,4.70
2019-06-07T15:41:13.323Z,5.82
2019-06-07T15:43:42.049Z,4.87
2019-06-07T15:46:09.969Z,3.65
2019-06-07T15:48:38.472Z,3.35
2019-06-07T15:51:06.233Z,4.10
2019-06-07T15:53:39.861Z,3.87
2019-06-07T15:56:02.920Z,3.90
2019-06-07T15:58:31.029Z,3.47
2019-06-07T16:00:59.139Z,3.53
2019-06-07T16:03:27.684Z,5.87
2019-06-07T16:05:55.541Z,3.00
2019-06-07T16:08:23.415Z,6.45
2019-06-07T16:10:51.216Z,6.87
2019-06-07T16:13:19.356Z,6.65
2019-06-07T16:15:47.459Z,6.75
2019-06-07T16:18:15.629Z,5.82
2019-06-07T16:20:43.833Z,11.35
2019-06-07T16:23:12.022Z,9.90
2019-06-07T16:25:40.208Z,8.80
2019-06-07T16:28:08.138Z,20.48
2019-06-07T16:30:36.371Z,19.80
2019-06-07T16:33:05.244Z,19.60
2019-06-07T16:35:33.335Z,30.52
2019-06-07T16:38:01.384Z,11.57
2019-06-07T16:40:29.271Z,14.38
2019-06-07T16:42:57.427Z,16.45
2019-06-07T16:45:25.713Z,30.30
2019-06-07T16:47:53.889Z,28.23
2019-06-07T16:50:22.068Z,20.20
2019-06-07T16:52:50.357Z,29.40
2019-06-07T16:55:18.948Z,26.55
2019-06-07T16:57:47.123Z,15.02
2019-06-07T17:00:15.275Z,32.25
2019-06-07T17:02:45.019Z,23.47
2019-06-07T17:05:11.552Z,10.18
2019-06-07T17:07:40.457Z,23.45
2019-06-07T17:10:08.462Z,24.48
2019-06-07T17:12:36.580Z,16.75
2019-06-07T17:15:05.142Z,10.65
2019-06-07T17:17:33.270Z,4.65
2019-06-07T17:20:01.974Z,3.37
2019-06-07T17:22:29.977Z,6.80
2019-06-07T17:24:58.181Z,2.85
2019-06-07T17:27:26.000Z,0.95
2019-06-07T17:29:54.093Z,3.25
2019-06-07T17:32:22.254Z,1.58
2019-06-07T17:34:50.427Z,1.37
2019-06-07T17:37:18.495Z,1.50
2019-06-07T17:39:47.067Z,3.20
2019-06-07T17:42:15.135Z,1.85
2019-06-07T17:44:43.518Z,4.40
2019-06-07T17:47:11.633Z,1.00
2019-06-07T17:49:39.877Z,1.52
2019-06-07T17:52:07.738Z,1.17
2019-06-07T17:54:35.814Z,3.67
2019-06-07T17:57:04.507Z,1.60
2019-06-07T17:59:32.586Z,2.10
2019-06-07T18:02:14.371Z,1.20
2019-06-07T18:04:28.902Z,2.62
2019-06-07T18:06:57.288Z,0.98
2019-06-07T18:09:25.390Z,0.90
2019-06-07T18:11:54.137Z,3.62
2019-06-07T18:14:21.601Z,7.28
2019-06-07T18:16:50.580Z,1.25
2019-06-07T18:19:17.962Z,3.37
2019-06-07T18:21:46.959Z,1.10
2019-06-07T18:24:14.590Z,1.90
2019-06-07T18:26:42.683Z,4.50
2019-06-07T18:29:10.777Z,4.97
2019-06-07T18:31:38.855Z,2.10
2019-06-07T18:34:07.599Z,1.58
2019-06-07T18:36:35.444Z,2.00
2019-06-07T18:39:03.946Z,2.75
2019-06-07T18:41:32.052Z,5.43
2019-06-07T18:44:00.204Z,9.80
2019-06-07T18:46:28.830Z,0.93
2019-06-07T18:48:56.764Z,2.10
2019-06-07T18:51:24.912Z,1.58
2019-06-07T18:53:53.682Z,4.43
2019-06-07T18:56:21.198Z,0.77
2019-06-07T18:58:49.331Z,3.25
2019-06-07T19:01:17.446Z,1.87
2019-06-07T19:03:47.162Z,1.85
2019-06-07T19:06:14.151Z,1.30
2019-06-07T19:08:42.256Z,1.23
2019-06-07T19:11:10.296Z,1.70
2019-06-07T19:13:38.406Z,4.15
2019-06-07T19:16:06.577Z,2.92
2019-06-07T19:18:34.684Z,2.42
2019-06-07T19:21:02.816Z,1.12
2019-06-07T19:23:30.911Z,4.18
2019-06-07T19:26:00.652Z,1.37
2019-06-07T19:28:27.322Z,1.42
2019-06-07T19:30:57.063Z,2.08
2019-06-07T19:33:23.893Z,5.72
2019-06-07T19:35:53.347Z,2.78
2019-06-07T19:38:20.561Z,1.42
2019-06-07T19:40:48.645Z,2.97
2019-06-07T19:43:16.766Z,3.08
2019-06-07T19:45:44.282Z,2.10
2019-06-07T19:48:12.164Z,2.28
2019-06-07T19:50:40.266Z,1.12
2019-06-07T19:53:08.873Z,2.15
2019-06-07T19:55:36.918Z,1.23
2019-06-07T19:58:04.999Z,2.20
2019-06-07T20:00:33.545Z,8.90
2019-06-07T20:03:02.247Z,2.58
2019-06-07T20:05:29.845Z,1.75
2019-06-07T20:07:58.490Z,1.75
2019-06-07T20:10:25.817Z,0.90
2019-06-07T20:12:54.519Z,0.70
2019-06-07T20:15:29.023Z,3.05
2019-06-07T20:17:51.157Z,1.12
2019-06-07T20:20:19.097Z,2.75
2019-06-07T20:22:47.190Z,1.98
2019-06-07T20:25:15.927Z,1.05
2019-06-07T20:27:44.056Z,3.20
2019-06-07T20:30:11.988Z,1.35
2019-06-07T20:32:39.839Z,1.05
2019-06-07T20:35:08.339Z,1.20
2019-06-07T20:37:36.522Z,4.05
2019-06-07T20:40:20.719Z,1.10
2019-06-07T20:42:33.452Z,1.73
2019-06-07T20:45:02.188Z,2.00
2019-06-07T20:47:29.827Z,2.35
2019-06-07T20:49:57.932Z,1.75
2019-06-07T20:52:25.733Z,2.20
2019-06-07T20:54:53.828Z,1.08
2019-06-07T20:57:22.091Z,2.90
2019-06-07T20:59:50.265Z,3.30
2019-06-07T21:02:18.946Z,1.62
2019-06-07T21:04:46.756Z,8.48
2019-06-07T21:07:14.928Z,5.37
2019-06-07T21:09:42.118Z,3.90
2019-06-07T21:12:10.229Z,4.78
2019-06-07T21:14:38.352Z,1.92
2019-06-07T21:17:06.257Z,4.65
2019-06-07T21:19:34.269Z,1.12
2019-06-07T21:22:02.367Z,2.05
2019-06-07T21:24:30.260Z,2.25
2019-06-07T21:26:58.080Z,2.87
2019-06-07T21:29:26.742Z,3.42
2019-06-07T21:31:54.483Z,3.50
2019-06-07T21:34:22.577Z,6.65
2019-06-07T21:36:50.638Z,0.90
2019-06-07T21:39:18.425Z,4.18
2019-06-07T21:41:46.588Z,1.37
2019-06-07T21:44:14.802Z,1.27
2019-06-07T21:46:42.931Z,1.30
2019-06-07T21:49:10.985Z,1.20
2019-06-07T21:51:39.923Z,2.28
2019-06-07T21:54:10.109Z,1.37
2019-06-07T21:56:35.882Z,5.60
2019-06-07T21:59:05.071Z,3.35
2019-06-07T22:01:32.154Z,5.55
2019-06-07T22:04:00.157Z,4.18
2019-06-07T22:06:28.341Z,2.42
2019-06-07T22:08:56.079Z,1.33
2019-06-07T22:11:23.964Z,2.80
2019-06-07T22:13:52.242Z,2.17
2019-06-07T22:16:28.655Z,2.80
2019-06-07T22:18:55.545Z,3.17
2019-06-07T22:21:23.048Z,4.93
2019-06-07T22:23:51.148Z,6.43
2019-06-07T22:26:18.962Z,2.40
2019-06-07T22:28:47.593Z,2.00
2019-06-07T22:31:15.703Z,5.32
2019-06-07T22:33:43.847Z,1.08
2019-06-07T22:36:13.215Z,2.53
2019-06-07T22:38:40.189Z,6.05
2019-06-07T22:41:07.817Z,2.05
2019-06-07T22:43:35.734Z,3.35
2019-06-07T22:46:03.812Z,7.25
2019-06-07T22:48:31.851Z,2.85
2019-06-07T22:50:59.955Z,3.20
2019-06-07T22:53:27.759Z,4.95
2019-06-07T22:56:06.233Z,2.97
2019-06-07T22:58:33.996Z,1.23
2019-06-07T23:01:02.079Z,2.35
2019-06-07T23:03:30.030Z,2.53
2019-06-07T23:05:58.805Z,2.92
2019-06-07T23:08:26.894Z,2.85
2019-06-07T23:10:55.076Z,3.35
2019-06-07T23:13:22.933Z,1.42
2019-06-07T23:15:50.694Z,2.20
2019-06-07T23:18:18.387Z,2.58
2019-06-07T23:20:46.251Z,1.65
2019-06-07T23:23:14.910Z,3.20
2019-06-07T23:25:42.812Z,1.58
2019-06-07T23:28:12.245Z,2.08
2019-06-07T23:30:38.712Z,1.48
2019-06-07T23:33:06.771Z,7.37
2019-06-07T23:35:35.453Z,5.68
2019-06-07T23:38:03.544Z,3.83
2019-06-07T23:40:31.612Z,3.58
2019-06-07T23:42:59.671Z,4.87
2019-06-07T23:45:27.765Z,3.40
2019-06-07T23:47:55.903Z,3.53
2019-06-07T23:50:23.999Z,3.60
2019-06-07T23:52:52.046Z,6.03
2019-06-07T23:55:20.213Z,8.32
2019-06-07T23:57:47.995Z,2.10
